Flight Track Log - Related Links

Times and Time Zones

All times are in EDT time to prevent confusion due to time zone crossing. See the SWA3206 flight status page for this flight to view local times or setup timezone preferences in your user account.

Time Position Orientation Groundspeed Altitude Reporting Facility
EDT Latitude Longitude Course Direction KTS MPH feet Rate Location/Type
Wed 08:52:39 PM 33.4333 -112.0667 270° West 179 206 2,900  Level Phoenix TRACON
Wed 08:53:33 PM 33.4333 -112.1333 270° West 211 243 5,000 2,571 Climbing Phoenix TRACON
Wed 08:54:10 PM 33.4386 -112.1711 280° West 218 251 6,800 2,633 Climbing Albuquerque Center
Wed 08:55:11 PM 33.4950 -112.1681 North 257 296 9,300 2,488 Climbing Albuquerque Center
Wed 08:56:13 PM 33.5167 -112.0678 75° East 316 364 11,900 2,732 Climbing Albuquerque Center
Wed 08:57:14 PM 33.5422 -111.9539 75° East 354 407 14,900 2,951 Climbing Albuquerque Center
Wed 08:58:15 PM 33.5678 -111.8333 76° East 374 430 17,900 3,122 Climbing Albuquerque Center
Wed 08:59:17 PM 33.6011 -111.6822 75° East 392 451 21,300 2,878 Climbing Albuquerque Center
Wed 09:00:18 PM 33.6294 -111.5497 76° East 411 473 23,800 2,244 Climbing Albuquerque Center
Wed 09:01:20 PM 33.6578 -111.4114 76° East 429 494 25,900 2,000 Climbing Albuquerque Center
Wed 09:02:21 PM 33.6889 -111.2672 75° East 447 514 27,900 1,869 Climbing Albuquerque Center
Wed 09:03:22 PM 33.7389 -111.1261 67° East 461 531 29,700 1,707 Climbing Albuquerque Center
Wed 09:04:24 PM 33.7894 -110.9819 67° East 470 541 31,400 1,756 Climbing Albuquerque Center
Wed 09:05:25 PM 33.8419 -110.8367 66° East 475 547 33,300 1,918 Climbing Albuquerque Center
Wed 09:06:26 PM 33.9033 -110.6628 67° East 474 545 35,300 1,659 Climbing Albuquerque Center
Wed 09:07:28 PM 33.9533 -110.5183 67° East 471 542 36,700 1,317 Climbing Albuquerque Center
Wed 09:08:29 PM 34.0003 -110.3814 68° East 473 544 38,000 1,131 Climbing Albuquerque Center
Wed 09:09:30 PM 34.0519 -110.2328 67° East 479 551 39,000 488 Climbing Albuquerque Center
Wed 09:10:32 PM 34.1033 -110.0850 67° East 481 554 39,000  Level Albuquerque Center
Wed 09:11:34 PM 34.1633 -109.9147 67° East 471 542 39,000  Level Albuquerque Center
Wed 09:12:35 PM 34.2092 -109.7753 68° East 468 539 39,000  Level Albuquerque Center
Wed 09:13:36 PM 34.2658 -109.6158 67° East 466 536 39,000  Level Albuquerque Center
Wed 09:14:37 PM 34.3125 -109.4761 68° East 467 537 39,000  Level Albuquerque Center
Wed 09:15:39 PM 34.3600 -109.3331 68° East 473 544 39,000  Level Albuquerque Center
Wed 09:16:40 PM 34.4156 -109.1692 68° East 474 545 39,000  Level Albuquerque Center
Wed 09:17:42 PM 34.4581 -109.0250 70° East 474 545 39,000  Level Albuquerque Center
Wed 09:18:43 PM 34.5039 -108.8564 72° East 473 544 39,000  Level Albuquerque Center
Wed 09:19:44 PM 34.5442 -108.7111 71° East 474 545 39,000  Level Albuquerque Center
Wed 09:20:46 PM 34.5833 -108.5656 72° East 475 547 39,000  Level Albuquerque Center
Wed 09:21:47 PM 34.6231 -108.4200 72° East 476 548 39,000  Level Albuquerque Center
Wed 09:22:48 PM 34.6728 -108.2375 72° East 475 547 39,000  Level Albuquerque Center
Wed 09:23:50 PM 34.7142 -108.0844 72° East 477 549 39,000  Level Albuquerque Center
Wed 09:24:51 PM 34.7550 -107.9311 72° East 476 548 39,000  Level Albuquerque Center
Wed 09:25:53 PM 34.7958 -107.7767 72° East 479 551 39,000  Level Albuquerque Center
Wed 09:26:54 PM 34.8383 -107.6214 72° East 482 555 39,000  Level Albuquerque Center
Wed 09:27:55 PM 34.9042 -107.4806 60° Northeast 488 562 39,000  Level Albuquerque Center
Wed 09:28:57 PM 34.9736 -107.3414 59° Northeast 481 554 39,000  Level Albuquerque Center
Wed 09:29:58 PM 35.0522 -107.1811 59° Northeast 479 551 39,000  Level Albuquerque Center
Wed 09:30:59 PM 35.1250 -107.0333 59° Northeast 481 554 39,000  Level Albuquerque Center
Wed 09:32:00 PM 35.1886 -106.9008 60° Northeast 475 547 39,000  Level Albuquerque Center
Wed 09:33:02 PM 35.2536 -106.7683 59° Northeast 475 547 39,000  Level Albuquerque Center
Wed 09:34:03 PM 35.3322 -106.6094 59° Northeast 483 556 39,000  Level Albuquerque Center
Wed 09:35:04 PM 35.3889 -106.4872 60° Northeast 483 556 39,000  Level Albuquerque Center
Wed 09:36:06 PM 35.4578 -106.3456 59° Northeast 484 557 39,000  Level Albuquerque Center
Wed 09:37:07 PM 35.5389 -106.1731 60° Northeast 485 558 39,000  Level Albuquerque Center
Wed 09:38:08 PM 35.6067 -106.0289 60° Northeast 486 559 39,000  Level Albuquerque Center
Wed 09:39:09 PM 35.6744 -105.8836 60° Northeast 489 563 39,000  Level Albuquerque Center
Wed 09:40:11 PM 35.7419 -105.7397 60° Northeast 486 559 39,000  Level Albuquerque Center
Wed 09:41:12 PM 35.8097 -105.5942 60° Northeast 488 562 39,000  Level Albuquerque Center
Wed 09:42:13 PM 35.8822 -105.4364 60° Northeast 485 558 39,000  Level Albuquerque Center
Wed 09:43:14 PM 35.9506 -105.2903 60° Northeast 485 558 39,000  Level Albuquerque Center
Wed 09:44:15 PM 36.0172 -105.1447 60° Northeast 483 556 39,000  Level Albuquerque Center
Wed 09:45:17 PM 36.0839 -104.9975 61° Northeast 483 556 39,000  Level Albuquerque Center
Wed 09:46:18 PM 36.1500 -104.8528 60° Northeast 481 554 39,000  Level Albuquerque Center
Wed 09:47:19 PM 36.2158 -104.7081 61° Northeast 478 550 39,000  Level Albuquerque Center
Wed 09:48:20 PM 36.2833 -104.5600 60° Northeast 484 557 39,000 246 Level Albuquerque Center
Wed 09:49:21 PM 36.3497 -104.4122 61° Northeast 485 558 39,500 787 Climbing Albuquerque Center
Wed 09:50:22 PM 36.4133 -104.2650 62° Northeast 482 555 40,600 732 Climbing Albuquerque Center
Wed 09:51:24 PM 36.4539 -104.1028 73° East 481 554 41,000 195 Climbing Albuquerque Center
Wed 09:52:25 PM 36.4953 -103.9419 72° East 483 556 41,000  Level Albuquerque Center
Wed 09:53:26 PM 36.5383 -103.7775 72° East 490 564 41,000  Level Albuquerque Center
Wed 09:54:27 PM 36.5822 -103.6142 71° East 493 567 41,000  Level Albuquerque Center
Wed 09:55:28 PM 36.6250 -103.4478 72° East 497 572 41,000  Level Albuquerque Center
Wed 09:56:30 PM 36.6667 -103.2822 73° East 496 571 41,000  Level Albuquerque Center
Wed 09:57:31 PM 36.7083 -103.1194 72° East 493 567 41,000  Level Albuquerque Center
Wed 09:58:32 PM 36.7492 -102.9556 73° East 489 563 41,000  Level Albuquerque Center
Wed 09:59:33 PM 36.7903 -102.7928 72° East 489 563 41,000  Level Albuquerque Center
Wed 10:00:34 PM 36.8308 -102.6317 72° East 485 558 41,000  Level Albuquerque Center
Wed 10:01:36 PM 36.8783 -102.4411 73° East 492 566 41,000  Level Albuquerque Center
Wed 10:02:37 PM 36.9147 -102.2908 73° East 484 557 41,000  Level Albuquerque Center
Wed 10:03:38 PM 36.9517 -102.1364 73° East 484 557 41,000  Level Albuquerque Center
Wed 10:04:39 PM 36.9964 -101.9583 72° East 483 556 41,000  Level Albuquerque Center
Wed 10:05:40 PM 37.0331 -101.8039 73° East 484 557 41,000  Level Albuquerque Center
Wed 10:06:42 PM 37.0767 -101.6231 73° East 487 560 41,000  Level Albuquerque Center
Wed 10:08:21 PM 37.1361 -101.3644 74° East 485 558 41,000  Level Kansas City Center
Wed 10:09:22 PM 37.1733 -101.2108 73° East 483 556 41,000  Level Kansas City Center
Wed 10:10:23 PM 37.2158 -101.0306 73° East 484 557 41,000  Level Kansas City Center
Wed 10:11:25 PM 37.2517 -100.8778 74° East 482 555 41,000  Level Kansas City Center
Wed 10:12:26 PM 37.2919 -100.7014 74° East 478 550 41,000  Level Kansas City Center
Wed 10:13:27 PM 37.3267 -100.5514 74° East 474 545 41,000  Level Kansas City Center
Wed 10:14:29 PM 37.3658 -100.3786 74° East 467 537 41,000  Level Kansas City Center
Wed 10:15:30 PM 37.4153 -100.2369 66° East 468 539 41,000  Level Kansas City Center
Wed 10:16:31 PM 37.4761 -100.1014 60° Northeast 467 537 41,000  Level Kansas City Center
Wed 10:17:32 PM 37.5478 -99.9400 61° Northeast 471 542 41,000  Level Kansas City Center
Wed 10:18:34 PM 37.6117 -99.8011 60° Northeast 478 550 41,000  Level Kansas City Center
Wed 10:19:35 PM 37.6831 -99.6381 61° Northeast 477 549 41,000  Level Kansas City Center
Wed 10:20:36 PM 37.7422 -99.4964 62° Northeast 476 548 41,000  Level Kansas City Center
Wed 10:21:38 PM 37.8014 -99.3633 61° Northeast 477 549 41,000  Level Kansas City Center
Wed 10:22:39 PM 37.8625 -99.2153 62° Northeast 476 548 41,000  Level Kansas City Center
Wed 10:23:40 PM 37.8783 -99.0194 84° East 467 537 41,000  Level Kansas City Center
Wed 10:24:41 PM 37.8903 -98.8564 85° East 465 535 41,000  Level Kansas City Center
Wed 10:25:43 PM 37.9008 -98.6964 85° East 460 529 41,000  Level Kansas City Center
Wed 10:26:44 PM 37.9267 -98.5397 78° East 454 522 41,000  Level Kansas City Center
Wed 10:27:45 PM 37.9319 -98.3792 88° East 455 524 41,000  Level Kansas City Center
Wed 10:28:46 PM 37.9389 -98.2194 87° East 455 524 41,000  Level Kansas City Center
Wed 10:29:47 PM 37.9450 -98.0444 87° East 455 524 41,000  Level Kansas City Center
Wed 10:30:49 PM 37.9514 -97.8861 87° East 452 520 41,000  Level Kansas City Center
Wed 10:31:50 PM 37.9592 -97.7122 87° East 472 543 41,000  Level Kansas City Center
Wed 10:32:51 PM 37.9667 -97.5489 87° East 468 539 41,000  Level Kansas City Center
Wed 10:33:52 PM 37.9733 -97.3906 87° East 466 536 41,000  Level Kansas City Center
Wed 10:34:53 PM 37.9797 -97.2258 87° East 468 539 41,000  Level Kansas City Center
Wed 10:35:54 PM 37.9911 -97.0606 85° East 471 542 41,000  Level Kansas City Center
Wed 10:36:55 PM 38.0261 -96.8994 75° East 475 547 41,000  Level Kansas City Center
Wed 10:37:57 PM 38.0578 -96.7378 76° East 475 547 41,000  Level Kansas City Center
Wed 10:38:58 PM 38.0892 -96.5744 76° East 477 549 41,000  Level Kansas City Center
Wed 10:39:59 PM 38.1264 -96.3808 76° East 472 543 41,000  Level Kansas City Center
Wed 10:41:00 PM 38.1561 -96.2225 77° East 463 533 41,000  Level Kansas City Center
Wed 10:42:01 PM 38.1842 -96.0775 76° East 462 532 41,000  Level Kansas City Center
Wed 10:43:02 PM 38.2175 -95.9003 76° East 461 531 41,000  Level Kansas City Center
Wed 10:44:03 PM 38.2464 -95.7489 76° East 462 532 41,000  Level Kansas City Center
Wed 10:45:04 PM 38.2792 -95.5714 77° East 465 535 41,000  Level Kansas City Center
Wed 10:46:05 PM 38.3067 -95.4183 77° East 465 535 41,000  Level Kansas City Center
Wed 10:47:07 PM 38.3344 -95.2653 77° East 465 535 41,000  Level Kansas City Center
Wed 10:48:08 PM 38.3681 -95.0878 76° East 464 534 41,000  Level Kansas City Center
Wed 10:49:09 PM 38.3953 -94.9353 77° East 463 533 41,000  Level Kansas City Center
Wed 10:50:10 PM 38.4219 -94.7856 77° East 458 527 41,000  Level Kansas City Center
Wed 10:51:11 PM 38.4531 -94.6100 77° East 457 526 41,000  Level Kansas City Center
Wed 10:52:12 PM 38.4803 -94.4594 77° East 456 525 41,000  Level Kansas City Center
Wed 10:53:13 PM 38.5097 -94.2856 78° East 452 520 41,000  Level Kansas City Center
Wed 10:54:14 PM 38.5350 -94.1375 78° East 448 516 41,000  Level Kansas City Center
Wed 10:55:15 PM 38.5600 -93.9892 78° East 448 516 41,000  Level Kansas City Center
Wed 10:56:16 PM 38.5894 -93.8181 78° East 445 512 41,000  Level Kansas City Center
Wed 10:57:17 PM 38.6111 -93.6822 78° East 441 507 41,000  Level Kansas City Center
Wed 10:58:18 PM 38.6364 -93.5297 78° East 438 504 41,000  Level Kansas City Center
Wed 10:59:19 PM 38.6678 -93.3442 78° East 440 506 41,000  Level Kansas City Center
Wed 11:00:20 PM 38.6933 -93.1917 78° East 439 505 41,000  Level Kansas City Center
Wed 11:01:21 PM 38.7175 -93.0358 79° East 442 509 41,000  Level Kansas City Center
Wed 11:02:22 PM 38.7433 -92.8811 78° East 442 509 41,000  Level Kansas City Center
Wed 11:03:23 PM 38.7683 -92.7261 78° East 443 510 41,000  Level Kansas City Center
Wed 11:04:24 PM 38.7922 -92.5706 79° East 442 509 41,000  Level Kansas City Center
Wed 11:05:25 PM 38.8167 -92.4150 79° East 443 510 41,000  Level Kansas City Center
Wed 11:06:26 PM 38.8414 -92.2611 78° East 441 507 41,000  Level Kansas City Center
Wed 11:07:27 PM 38.8647 -92.1053 79° East 441 507 41,000  Level Kansas City Center
Wed 11:08:28 PM 38.8881 -91.9433 79° East 449 517 41,000  Level Kansas City Center
Wed 11:09:29 PM 38.9114 -91.7853 79° East 449 517 41,000  Level Kansas City Center
Wed 11:10:30 PM 38.9339 -91.6339 79° East 449 517 41,000  Level Kansas City Center
Wed 11:11:31 PM 38.9578 -91.4761 79° East 451 519 41,000  Level Kansas City Center
Wed 11:12:32 PM 38.9811 -91.3206 79° East 447 514 41,000  Level Kansas City Center
Wed 11:13:33 PM 39.0033 -91.1650 80° East 443 510 41,000  Level Kansas City Center
Wed 11:14:34 PM 39.0258 -91.0083 79° East 444 511 41,000  Level Kansas City Center
Wed 11:15:35 PM 39.0489 -90.8511 79° East 446 513 41,000  Level Kansas City Center
Wed 11:16:36 PM 39.0711 -90.6950 80° East 444 511 41,000  Level Kansas City Center
Wed 11:17:37 PM 39.0928 -90.5353 80° East 448 516 41,000  Level Kansas City Center
Wed 11:18:38 PM 39.1192 -90.3428 80° East 451 519 41,000  Level Kansas City Center
Wed 11:19:39 PM 39.1411 -90.1819 80° East 453 521 41,000  Level Kansas City Center
Wed 11:20:40 PM 39.1628 -90.0206 80° East 455 524 41,000  Level Kansas City Center
Wed 11:21:41 PM 39.1836 -89.8594 80° East 449 517 41,000  Level Kansas City Center
Wed 11:22:42 PM 39.2047 -89.7003 80° East 456 525 41,000  Level Kansas City Center
Wed 11:23:43 PM 39.2253 -89.5394 81° East 455 524 41,000  Level Kansas City Center
Wed 11:24:44 PM 39.2464 -89.3783 80° East 455 524 41,000  Level Kansas City Center
Wed 11:25:45 PM 39.2667 -89.2178 81° East 455 524 41,000  Level Kansas City Center
Wed 11:26:46 PM 39.2867 -89.0581 81° East 453 521 41,000  Level Kansas City Center
Wed 11:27:47 PM 39.3078 -88.8997 80° East 449 517 41,000  Level Kansas City Center
Wed 11:28:48 PM 39.3294 -88.7400 80° East 451 519 41,000  Level Kansas City Center
Wed 11:29:49 PM 39.3472 -88.5800 82° East 453 521 41,000  Level Kansas City Center
Wed 11:30:50 PM 39.3653 -88.4197 82° East 452 520 41,000  Level Kansas City Center
Wed 11:31:51 PM 39.3872 -88.2239 82° East 453 521 41,000  Level Kansas City Center
Wed 11:32:52 PM 39.4092 -88.0561 80° East 461 531 41,000  Level Kansas City Center
Wed 11:33:53 PM 39.4289 -87.8897 81° East 464 534 41,000  Level Kansas City Center
Wed 11:34:29 PM 39.4364 -87.8083 83° East 459 528 41,000  Level Indianapolis Center
Wed 11:35:30 PM 39.4544 -87.6442 82° East 458 527 41,000  Level Indianapolis Center
Wed 11:36:31 PM 39.4736 -87.4797 81° East 458 527 41,000  Level Indianapolis Center
Wed 11:37:32 PM 39.4906 -87.3158 82° East 456 525 41,000  Level Indianapolis Center
Wed 11:38:33 PM 39.5083 -87.1533 82° East 454 522 41,000  Level Indianapolis Center
Wed 11:39:34 PM 39.5267 -86.9914 82° East 453 521 41,000  Level Indianapolis Center
Wed 11:40:35 PM 39.5444 -86.8297 82° East 452 520 41,000  Level Indianapolis Center
Wed 11:41:36 PM 39.5608 -86.6672 82° East 453 521 41,000  Level Indianapolis Center
Wed 11:42:37 PM 39.5794 -86.4800 83° East 450 518 41,000  Level Indianapolis Center
Wed 11:43:38 PM 39.5956 -86.3181 83° East 455 524 41,000  Level Indianapolis Center
Wed 11:44:39 PM 39.6103 -86.1569 83° East 456 525 41,000  Level Indianapolis Center
Wed 11:45:40 PM 39.6275 -85.9972 82° East 450 518 41,000  Level Indianapolis Center
Wed 11:46:41 PM 39.6431 -85.8353 83° East 452 520 41,000  Level Indianapolis Center
Wed 11:47:41 PM 39.6592 -85.6733 83° East 451 519 41,000  Level Indianapolis Center
Wed 11:48:42 PM 39.6744 -85.5114 83° East 452 520 41,000  Level Indianapolis Center
Wed 11:49:43 PM 39.6886 -85.3478 84° East 453 521 41,000  Level Indianapolis Center
Wed 11:50:44 PM 39.7047 -85.1844 83° East 455 524 41,000  Level Indianapolis Center
Wed 11:51:45 PM 39.7194 -85.0203 83° East 456 525 41,000  Level Indianapolis Center
Wed 11:52:46 PM 39.7278 -84.8544 86° East 453 521 41,000  Level Indianapolis Center
Wed 11:53:47 PM 39.7344 -84.6897 87° East 454 522 41,000  Level Indianapolis Center
Wed 11:54:47 PM 39.7428 -84.5244 86° East 454 522 41,000  Level Indianapolis Center
Wed 11:55:48 PM 39.7497 -84.3603 87° East 453 521 41,000  Level Indianapolis Center
Wed 11:56:49 PM 39.7586 -84.1939 86° East 456 525 41,000  Level Indianapolis Center
Wed 11:57:50 PM 39.7647 -84.0286 87° East 455 524 41,000  Level Indianapolis Center
Wed 11:58:51 PM 39.7714 -83.8633 87° East 456 525 41,000  Level Indianapolis Center
Wed 11:59:52 PM 39.7769 -83.6981 87° East 456 525 41,000  Level Indianapolis Center
Thu 12:00:52 AM 39.7833 -83.5269 87° East 459 528 41,000  Level Indianapolis Center
Thu 12:01:53 AM 39.7911 -83.3600 86° East 460 529 41,000  Level Indianapolis Center
Thu 12:02:54 AM 39.7967 -83.1794 88° East 460 529 41,000  Level Indianapolis Center
Thu 12:03:55 AM 39.8022 -83.0119 87° East 461 531 41,000  Level Indianapolis Center
Thu 12:04:56 AM 39.8075 -82.8433 88° East 464 534 41,000  Level Indianapolis Center
Thu 12:05:56 AM 39.8128 -82.6756 88° East 461 531 41,000  Level Indianapolis Center
Thu 12:06:57 AM 39.8175 -82.5064 88° East 464 534 41,000  Level Indianapolis Center
Thu 12:07:58 AM 39.8228 -82.3372 88° East 464 534 41,000  Level Indianapolis Center
Thu 12:08:59 AM 39.8261 -82.1692 88° East 462 532 41,000  Level Indianapolis Center
Thu 12:09:59 AM 39.8314 -82.0025 88° East 461 531 41,000  Level Indianapolis Center
Thu 12:11:00 AM 39.8353 -81.8353 88° East 458 527 41,000  Level Indianapolis Center
Thu 12:12:01 AM 39.8356 -81.6683 90° East 459 528 41,000  Level Indianapolis Center
Thu 12:13:01 AM 39.8158 -81.4992 99° East 466 536 41,000  Level Indianapolis Center
Thu 12:14:02 AM 39.7972 -81.3197 98° East 467 537 41,000  Level Indianapolis Center
Thu 12:15:02 AM 39.7803 -81.1533 97° East 463 533 41,000  Level Indianapolis Center
Thu 12:16:03 AM 39.7617 -80.9858 98° East 465 535 41,000  Level Indianapolis Center
Thu 12:17:04 AM 39.7450 -80.8189 97° East 465 535 41,000  Level Indianapolis Center
Thu 12:18:04 AM 39.7258 -80.6531 98° East 464 534 41,000  Level Indianapolis Center
Thu 12:19:05 AM 39.7081 -80.4872 98° East 462 532 41,000  Level Indianapolis Center
Thu 12:20:13 AM 39.6919 -80.3164 97° East 449 517 41,000  Level Washington Center
Thu 12:21:13 AM 39.6733 -80.1481 98° East 454 522 41,000  Level Washington Center
Thu 12:22:13 AM 39.6544 -79.9878 99° East 454 522 41,000 -347 Level Washington Center
Thu 12:23:14 AM 39.6353 -79.8247 99° East 454 522 40,300 -850 Descending Washington Center
Thu 12:24:13 AM 39.6161 -79.6567 98° East 454 522 39,300 -950 Descending Washington Center
Thu 12:25:14 AM 39.5967 -79.4886 98° East 459 528 38,400 -885 Descending Washington Center
Thu 12:26:15 AM 39.5769 -79.3206 99° East 465 535 37,500 -992 Descending Washington Center
Thu 12:27:15 AM 39.5533 -79.1364 99° East 470 541 36,400 -2,319 Descending Washington Center
Thu 12:28:14 AM 39.5308 -78.9683 100° East 470 541 32,900 -3,471 Descending Washington Center
Thu 12:29:16 AM 39.5106 -78.8033 99° East 470 541 29,400 -3,227 Descending Washington Center
Thu 12:30:13 AM 39.4914 -78.6519 99° East 450 518 26,500 -2,872 Descending Washington Center
Thu 12:31:13 AM 39.4742 -78.5139 99° East 421 484 23,800 -2,400 Descending Washington Center
Thu 12:32:13 AM 39.4581 -78.4006 100° East 406 467 21,700 -2,628 Descending Washington Center
Thu 12:33:14 AM 39.4347 -78.2331 100° East 396 456 18,500 -2,800 Descending Washington Center
Thu 12:34:13 AM 39.4167 -78.1006 100° East 385 443 16,100 -1,966 Descending Washington Center
Thu 12:35:13 AM 39.4028 -77.9686 98° East 380 437 14,600 -1,950 Descending Washington Center
Thu 12:36:13 AM 39.4133 -77.8425 84° East 361 415 12,200 -1,918 Descending Washington Center
Thu 12:37:15 AM 39.4239 -77.7194 84° East 349 402 10,700 -1,082 Descending Washington Center
Thu 12:38:15 AM 39.4364 -77.6097 82° East 329 379 10,000 -1,017 Descending Washington Center
Thu 12:39:13 AM 39.4442 -77.5131 84° East 298 343 8,700 -1,169 Descending Washington Center
Thu 12:40:13 AM 39.4539 -77.4167 83° East 278 320 7,700 -976 Descending Washington Center
Thu 12:41:16 AM 39.4617 -77.3172 84° East 278 320 6,700 -976 Descending Washington Center
Thu 12:42:16 AM 39.4714 -77.2233 82° East 278 320 5,700 -850 Descending Washington Center
Thu 12:43:16 AM 39.4789 -77.1322 84° East 268 308 5,000 -692 Descending Washington Center
Thu 12:44:26 AM 39.5167 -77.0500 59° Northeast 225 259 4,200 -785 Descending Potomac TRACON
Thu 12:45:26 AM 39.5000 -76.9833 108° East 201 231 3,300 -632 Descending Potomac TRACON
Thu 12:46:20 AM 39.4667 -76.9500 142° Southeast 205 236 3,000 -158 Descending Potomac TRACON
Thu 12:47:20 AM 39.4333 -76.9167 142° Southeast 189 217 3,000  Level Potomac TRACON
Thu 12:48:08 AM 39.4000 -76.8833 142° Southeast 171 197 3,000  Level Potomac TRACON
Thu 12:49:14 AM 39.3667 -76.8500 142° Southeast 149 171 3,000  Level Potomac TRACON
Thu 12:50:20 AM 39.3333 -76.8167 142° Southeast 143 165 3,000  Level Potomac TRACON
Thu 12:51:20 AM 39.3000 -76.7833 142° Southeast 143 165 3,000 -350 Level Potomac TRACON
Thu 12:52:20 AM 39.2667 -76.7667 159° South 141 162 2,300 -737 Descending Potomac TRACON
Thu 12:53:14 AM 39.2500 -76.7333 123° Southeast 132 152 1,600 -684 Descending Potomac TRACON
Thu 12:54:14 AM 39.2167 -76.7167 159° South 125 144 1,000 -600 Descending Potomac TRACON
Thu 12:55:14 AM 39.2000 -76.6833 123° Southeast 125 144 400 -600 Descending Potomac TRACON
Thu 12:57:00 AM 39.1754 -76.6683 142° Southeast  Level Estimated

Login

Don't have an account? Register now (free) for customized features, flight alerts, and more!